EDVEEKVG

Guest
Details From EDVE - Braunschweig
To EKVG - Vagar
Flight Number -
Tags Generated
Created
Modified
Stats Distance 819 nm / 1,517 km
Max Altitude 0 ft / 0 m
Waypoints 4
Social Downloads 0
Likes 0
Share VATSIM

Download

Looking for another format? Having issues loading an existing format? Contact us
Advertisement - Login to hide

Notes

Generated

Route

EDVE BEDRO MF060 EKVG

ID Type Via Altitude Latitude Longitude Leg Dist Tot Dist Heading (true) Name
O EDVE APT - 0 ft / 0 m 52.31741˚ 10.54852˚ - 0 nm - Braunschweig-Wolfsburg
BEDRO FIX - 0 ft / 0 m 55.59778˚ 6.00000˚ 254 nm 254 nm 323° / 319° -
MF060 FIX - 0 ft / 0 m 62.06049˚ -7.26639˚ 564 nm 818 nm 319° / 307° -
O EKVG APT - 0 ft / 0 m 62.06621˚ -7.28761˚ 0 nm 819 nm 300° / 300° -

Altitude Profile

Advertisement - Login to hide

Weather


0- 5 10 15 20 25 30 35+ Temperature / ° C

Clouds and Precipitation
Forecast for 2017-12-16 12:00 UTC. Updated 2 hours ago

Ground ~20,000 ft ~40,000 ft Winds

EDVE

Details ICAO EDVE (BWE)
Name Braunschweig-Wolfsburg
Region Germany - Civil
Timezone Europe/Berlin (UTC+1.0)
Stats Elevation 295 ft / 90 m (AMSL)
Location 52.318435° 10.554742°
Runways 2
Magnetic Variation 2.940° E

METAR

EDVE 161050Z 27008KT 240V300 9000 BKN009 OVC011 03/03 Q1006

Decode

TAF

Not found

Departure Runways

ID Width Length Bearing (true) Bearing (mag) Surface Threshold Offset Overrun Length
08 98 ft / 30 m 5,496 ft / 1,675 m 84.98° 82.04° Asphalt 984 ft / 300 m 0 ft / 0 m
08R 98 ft / 30 m 2,950 ft / 899 m 84.56° 81.62° Grass 0 ft / 0 m 0 ft / 0 m
26 98 ft / 30 m 5,496 ft / 1,675 m 265.00° 262.06° Asphalt 591 ft / 180 m 190 ft / 58 m
26L 98 ft / 30 m 2,950 ft / 899 m 264.57° 261.63° Grass 0 ft / 0 m 0 ft / 0 m

EKVG

Details ICAO EKVG (FAE)
Name Vagar
Region Denmark / Faroe Islands
Timezone Atlantic/Faroe (UTC+0.0)
Stats Elevation 280 ft / 85 m (AMSL)
Location 62.063584° -7.277044°
Runways 1
Magnetic Variation 5.383° W

METAR

EKVG 161120Z 00000KT 9999 FEW038 SCT042 M01/M05 Q1014

Decode

TAF

Not found

Destination Runways

ID Width Length Bearing (true) Bearing (mag) Surface Threshold Offset Overrun Length
13 98 ft / 30 m 4,088 ft / 1,246 m 117.92° 123.30° Asphalt 0 ft / 0 m 197 ft / 60 m
31 98 ft / 30 m 4,088 ft / 1,246 m 297.94° 303.32° Asphalt 0 ft / 0 m 197 ft / 60 m

Approach Navaids

Runway Type Ident Frequency Range Bearing (true) Bearing (mag) Slope Elevation
13 Localiser SF 109.10 MHz 17 nm / 31 km 104.19° 109.57° - 268 ft / 82 m (AMSL)
13 DME SF 109.10 MHz 18 nm / 33 km - - - 268 ft / 82 m (AMSL)
31 Localiser MF 110.30 MHz 26 nm / 48 km 296.18° 301.56° - 276 ft / 84 m (AMSL)
31 DME MF 110.30 MHz 25 nm / 46 km - - - 275 ft / 84 m (AMSL)

Popular Alternatives